sensor_id;sensor_type;location;lat;lon;timestamp;temperature;humidity
66928;DHT22;59882;45.624;11.698;2023-07-13T00:01:54;20.10;92.10
66928;DHT22;59882;45.624;11.698;2023-07-13T00:04:22;20.20;92.30
66928;DHT22;59882;45.624;11.698;2023-07-13T00:06:48;20.20;92.40
66928;DHT22;59882;45.624;11.698;2023-07-13T00:09:15;20.20;92.40
66928;DHT22;59882;45.624;11.698;2023-07-13T00:11:42;20.20;92.50
66928;DHT22;59882;45.624;11.698;2023-07-13T00:14:08;20.30;92.60
66928;DHT22;59882;45.624;11.698;2023-07-13T00:16:35;20.40;92.70
66928;DHT22;59882;45.624;11.698;2023-07-13T00:19:01;20.40;92.50
66928;DHT22;59882;45.624;11.698;2023-07-13T00:21:27;20.50;92.70
66928;DHT22;59882;45.624;11.698;2023-07-13T00:23:53;20.50;92.60
66928;DHT22;59882;45.624;11.698;2023-07-13T00:26:18;20.40;92.50
66928;DHT22;59882;45.624;11.698;2023-07-13T00:28:44;20.10;90.90
66928;DHT22;59882;45.624;11.698;2023-07-13T00:31:11;19.90;91.30
66928;DHT22;59882;45.624;11.698;2023-07-13T00:33:37;19.50;90.90
66928;DHT22;59882;45.624;11.698;2023-07-13T00:36:03;19.20;91.90
66928;DHT22;59882;45.624;11.698;2023-07-13T00:38:29;19.20;92.60
66928;DHT22;59882;45.624;11.698;2023-07-13T00:40:55;19.30;93.00
66928;DHT22;59882;45.624;11.698;2023-07-13T00:43:23;19.40;93.20
66928;DHT22;59882;45.624;11.698;2023-07-13T00:48:18;19.70;93.50
66928;DHT22;59882;45.624;11.698;2023-07-13T00:50:48;19.90;93.50
66928;DHT22;59882;45.624;11.698;2023-07-13T00:53:14;20.00;93.60
66928;DHT22;59882;45.624;11.698;2023-07-13T00:55:40;20.00;93.60
66928;DHT22;59882;45.624;11.698;2023-07-13T00:58:06;20.10;93.60
66928;DHT22;59882;45.624;11.698;2023-07-13T01:00:34;20.10;93.60
66928;DHT22;59882;45.624;11.698;2023-07-13T01:03:02;20.20;93.70
66928;DHT22;59882;45.624;11.698;2023-07-13T01:05:30;20.40;93.80
66928;DHT22;59882;45.624;11.698;2023-07-13T01:07:57;20.40;93.90
66928;DHT22;59882;45.624;11.698;2023-07-13T01:10:24;20.40;93.80
66928;DHT22;59882;45.624;11.698;2023-07-13T01:12:50;20.40;93.80
66928;DHT22;59882;45.624;11.698;2023-07-13T01:18:04;20.40;93.90
66928;DHT22;59882;45.624;11.698;2023-07-13T01:20:30;20.40;93.90
66928;DHT22;59882;45.624;11.698;2023-07-13T01:23:07;20.40;93.90
66928;DHT22;59882;45.624;11.698;2023-07-13T01:25:35;20.50;93.90
66928;DHT22;59882;45.624;11.698;2023-07-13T01:28:05;20.40;94.00
66928;DHT22;59882;45.624;11.698;2023-07-13T01:30:32;20.40;94.00
66928;DHT22;59882;45.624;11.698;2023-07-13T01:32:58;20.40;94.00
66928;DHT22;59882;45.624;11.698;2023-07-13T01:35:24;20.40;94.00
66928;DHT22;59882;45.624;11.698;2023-07-13T01:37:52;20.40;94.00
66928;DHT22;59882;45.624;11.698;2023-07-13T01:40:18;20.40;94.00
66928;DHT22;59882;45.624;11.698;2023-07-13T01:42:44;20.40;94.00
66928;DHT22;59882;45.624;11.698;2023-07-13T01:45:10;20.40;94.10
66928;DHT22;59882;45.624;11.698;2023-07-13T01:47:35;20.40;94.10
66928;DHT22;59882;45.624;11.698;2023-07-13T01:50:01;20.40;94.10
66928;DHT22;59882;45.624;11.698;2023-07-13T01:52:26;20.40;94.10
66928;DHT22;59882;45.624;11.698;2023-07-13T01:54:52;20.50;94.10
66928;DHT22;59882;45.624;11.698;2023-07-13T01:57:18;20.40;94.10
66928;DHT22;59882;45.624;11.698;2023-07-13T01:59:43;20.50;94.20
66928;DHT22;59882;45.624;11.698;2023-07-13T02:02:09;20.50;94.10
66928;DHT22;59882;45.624;11.698;2023-07-13T02:04:34;20.60;94.20
66928;DHT22;59882;45.624;11.698;2023-07-13T02:07:00;20.50;94.20
66928;DHT22;59882;45.624;11.698;2023-07-13T02:09:26;20.50;94.20
66928;DHT22;59882;45.624;11.698;2023-07-13T02:11:51;20.60;94.20
66928;DHT22;59882;45.624;11.698;2023-07-13T02:14:17;20.70;94.30
66928;DHT22;59882;45.624;11.698;2023-07-13T02:16:43;20.70;94.30
66928;DHT22;59882;45.624;11.698;2023-07-13T02:19:09;20.70;94.30
66928;DHT22;59882;45.624;11.698;2023-07-13T02:21:35;20.70;94.20
66928;DHT22;59882;45.624;11.698;2023-07-13T02:24:00;20.70;94.20
66928;DHT22;59882;45.624;11.698;2023-07-13T02:26:27;20.70;94.20
66928;DHT22;59882;45.624;11.698;2023-07-13T02:28:52;20.80;94.20
66928;DHT22;59882;45.624;11.698;2023-07-13T02:31:18;20.80;94.20
66928;DHT22;59882;45.624;11.698;2023-07-13T02:33:44;20.80;94.20
66928;DHT22;59882;45.624;11.698;2023-07-13T02:36:11;20.80;94.10
66928;DHT22;59882;45.624;11.698;2023-07-13T02:38:37;20.70;94.00
66928;DHT22;59882;45.624;11.698;2023-07-13T02:41:07;20.70;94.10
66928;DHT22;59882;45.624;11.698;2023-07-13T02:43:34;20.80;94.10
66928;DHT22;59882;45.624;11.698;2023-07-13T02:46:00;20.80;94.10
66928;DHT22;59882;45.624;11.698;2023-07-13T02:48:33;20.80;94.10
66928;DHT22;59882;45.624;11.698;2023-07-13T02:50:59;20.90;94.10
66928;DHT22;59882;45.624;11.698;2023-07-13T02:53:24;20.90;94.10
66928;DHT22;59882;45.624;11.698;2023-07-13T02:55:50;20.80;94.00
66928;DHT22;59882;45.624;11.698;2023-07-13T02:58:16;20.80;93.90
66928;DHT22;59882;45.624;11.698;2023-07-13T03:00:46;20.70;93.90
66928;DHT22;59882;45.624;11.698;2023-07-13T03:03:13;20.60;93.80
66928;DHT22;59882;45.624;11.698;2023-07-13T03:05:43;20.60;93.70
66928;DHT22;59882;45.624;11.698;2023-07-13T03:08:10;20.40;93.50
66928;DHT22;59882;45.624;11.698;2023-07-13T03:10:35;20.40;93.60
66928;DHT22;59882;45.624;11.698;2023-07-13T03:13:02;20.40;93.70
66928;DHT22;59882;45.624;11.698;2023-07-13T03:15:27;20.50;93.80
66928;DHT22;59882;45.624;11.698;2023-07-13T03:17:53;20.50;93.80
66928;DHT22;59882;45.624;11.698;2023-07-13T03:20:19;20.50;93.80
66928;DHT22;59882;45.624;11.698;2023-07-13T03:22:45;20.50;93.80
66928;DHT22;59882;45.624;11.698;2023-07-13T03:25:10;20.50;93.80
66928;DHT22;59882;45.624;11.698;2023-07-13T03:27:37;20.60;93.80
66928;DHT22;59882;45.624;11.698;2023-07-13T03:30:04;20.60;93.70
66928;DHT22;59882;45.624;11.698;2023-07-13T03:32:30;20.70;93.70
66928;DHT22;59882;45.624;11.698;2023-07-13T03:34:55;20.70;93.70
66928;DHT22;59882;45.624;11.698;2023-07-13T03:37:21;20.60;93.70
66928;DHT22;59882;45.624;11.698;2023-07-13T03:39:47;20.70;93.70
66928;DHT22;59882;45.624;11.698;2023-07-13T03:42:12;20.70;93.70
66928;DHT22;59882;45.624;11.698;2023-07-13T03:44:40;20.70;93.80
66928;DHT22;59882;45.624;11.698;2023-07-13T03:47:06;20.80;93.80
66928;DHT22;59882;45.624;11.698;2023-07-13T03:49:34;20.70;93.60
66928;DHT22;59882;45.624;11.698;2023-07-13T03:52:00;20.60;93.30
66928;DHT22;59882;45.624;11.698;2023-07-13T03:54:25;20.50;93.30
66928;DHT22;59882;45.624;11.698;2023-07-13T03:56:51;20.50;93.40
66928;DHT22;59882;45.624;11.698;2023-07-13T03:59:17;20.50;93.40
66928;DHT22;59882;45.624;11.698;2023-07-13T04:01:43;20.50;93.50
66928;DHT22;59882;45.624;11.698;2023-07-13T04:04:09;20.50;93.60
66928;DHT22;59882;45.624;11.698;2023-07-13T04:06:35;20.50;93.70
66928;DHT22;59882;45.624;11.698;2023-07-13T04:09:03;20.60;93.70
66928;DHT22;59882;45.624;11.698;2023-07-13T04:11:31;20.60;93.70
66928;DHT22;59882;45.624;11.698;2023-07-13T04:13:57;20.70;93.70
66928;DHT22;59882;45.624;11.698;2023-07-13T04:16:24;20.70;93.60
66928;DHT22;59882;45.624;11.698;2023-07-13T04:18:50;20.80;93.70
66928;DHT22;59882;45.624;11.698;2023-07-13T04:21:20;20.90;93.80
66928;DHT22;59882;45.624;11.698;2023-07-13T04:23:46;20.90;93.70
66928;DHT22;59882;45.624;11.698;2023-07-13T04:26:11;20.90;93.70
66928;DHT22;59882;45.624;11.698;2023-07-13T04:28:37;20.90;93.70
66928;DHT22;59882;45.624;11.698;2023-07-13T04:31:03;20.90;93.70
66928;DHT22;59882;45.624;11.698;2023-07-13T04:33:28;20.90;93.50
66928;DHT22;59882;45.624;11.698;2023-07-13T04:35:55;21.00;93.30
66928;DHT22;59882;45.624;11.698;2023-07-13T04:38:27;21.00;93.50
66928;DHT22;59882;45.624;11.698;2023-07-13T04:40:56;21.10;93.40
66928;DHT22;59882;45.624;11.698;2023-07-13T04:43:23;21.10;93.40
66928;DHT22;59882;45.624;11.698;2023-07-13T04:45:50;21.10;93.50
66928;DHT22;59882;45.624;11.698;2023-07-13T04:48:16;21.10;93.50
66928;DHT22;59882;45.624;11.698;2023-07-13T04:50:41;21.10;93.40
66928;DHT22;59882;45.624;11.698;2023-07-13T04:53:09;21.20;93.40
66928;DHT22;59882;45.624;11.698;2023-07-13T04:55:36;21.30;93.50
66928;DHT22;59882;45.624;11.698;2023-07-13T04:58:01;21.20;93.50
66928;DHT22;59882;45.624;11.698;2023-07-13T05:00:28;21.30;93.50
66928;DHT22;59882;45.624;11.698;2023-07-13T05:02:56;21.30;93.40
66928;DHT22;59882;45.624;11.698;2023-07-13T05:05:23;21.40;93.30
66928;DHT22;59882;45.624;11.698;2023-07-13T05:07:49;21.40;93.10
66928;DHT22;59882;45.624;11.698;2023-07-13T05:10:15;21.40;93.20
66928;DHT22;59882;45.624;11.698;2023-07-13T05:12:41;21.40;93.10
66928;DHT22;59882;45.624;11.698;2023-07-13T05:15:07;21.40;93.10
66928;DHT22;59882;45.624;11.698;2023-07-13T05:17:33;21.40;93.10
66928;DHT22;59882;45.624;11.698;2023-07-13T05:19:58;21.40;93.10
66928;DHT22;59882;45.624;11.698;2023-07-13T05:22:24;21.40;92.90
66928;DHT22;59882;45.624;11.698;2023-07-13T05:24:49;21.50;92.90
66928;DHT22;59882;45.624;11.698;2023-07-13T05:27:15;21.60;93.00
66928;DHT22;59882;45.624;11.698;2023-07-13T05:29:41;21.60;93.00
66928;DHT22;59882;45.624;11.698;2023-07-13T05:32:06;21.70;93.10
66928;DHT22;59882;45.624;11.698;2023-07-13T05:34:32;21.80;93.10
66928;DHT22;59882;45.624;11.698;2023-07-13T05:36:57;21.80;93.00
66928;DHT22;59882;45.624;11.698;2023-07-13T05:39:23;21.80;93.00
66928;DHT22;59882;45.624;11.698;2023-07-13T05:41:49;21.90;93.00
66928;DHT22;59882;45.624;11.698;2023-07-13T05:44:15;21.90;92.90
66928;DHT22;59882;45.624;11.698;2023-07-13T05:46:41;21.90;92.90
66928;DHT22;59882;45.624;11.698;2023-07-13T05:49:06;21.90;92.90
66928;DHT22;59882;45.624;11.698;2023-07-13T05:51:32;21.90;92.90
66928;DHT22;59882;45.624;11.698;2023-07-13T05:53:58;22.00;92.70
66928;DHT22;59882;45.624;11.698;2023-07-13T05:56:23;22.00;92.40
66928;DHT22;59882;45.624;11.698;2023-07-13T05:58:50;22.10;92.50
66928;DHT22;59882;45.624;11.698;2023-07-13T06:01:16;22.10;92.50
66928;DHT22;59882;45.624;11.698;2023-07-13T06:03:42;22.10;92.10
66928;DHT22;59882;45.624;11.698;2023-07-13T06:06:09;22.10;92.20
66928;DHT22;59882;45.624;11.698;2023-07-13T06:08:36;22.10;92.10
66928;DHT22;59882;45.624;11.698;2023-07-13T06:11:12;22.20;92.20
66928;DHT22;59882;45.624;11.698;2023-07-13T06:13:39;22.20;92.00
66928;DHT22;59882;45.624;11.698;2023-07-13T06:16:05;22.20;91.50
66928;DHT22;59882;45.624;11.698;2023-07-13T06:18:35;22.30;91.50
66928;DHT22;59882;45.624;11.698;2023-07-13T06:21:16;22.40;91.70
66928;DHT22;59882;45.624;11.698;2023-07-13T06:23:42;22.40;91.30
66928;DHT22;59882;45.624;11.698;2023-07-13T06:26:09;22.50;91.40
66928;DHT22;59882;45.624;11.698;2023-07-13T06:28:35;22.60;91.50
66928;DHT22;59882;45.624;11.698;2023-07-13T06:31:01;22.70;91.70
66928;DHT22;59882;45.624;11.698;2023-07-13T06:33:29;22.70;90.90
66928;DHT22;59882;45.624;11.698;2023-07-13T06:35:55;22.70;89.90
66928;DHT22;59882;45.624;11.698;2023-07-13T06:38:21;22.70;90.50
66928;DHT22;59882;45.624;11.698;2023-07-13T06:40:47;22.80;90.60
66928;DHT22;59882;45.624;11.698;2023-07-13T06:43:12;22.80;90.90
66928;DHT22;59882;45.624;11.698;2023-07-13T06:45:46;22.90;90.00
66928;DHT22;59882;45.624;11.698;2023-07-13T06:48:15;22.90;88.80
66928;DHT22;59882;45.624;11.698;2023-07-13T06:50:42;22.90;88.40
66928;DHT22;59882;45.624;11.698;2023-07-13T06:53:08;22.90;87.00
66928;DHT22;59882;45.624;11.698;2023-07-13T06:55:34;22.90;88.40
66928;DHT22;59882;45.624;11.698;2023-07-13T06:57:59;22.90;86.20
66928;DHT22;59882;45.624;11.698;2023-07-13T07:00:25;22.80;87.50
66928;DHT22;59882;45.624;11.698;2023-07-13T07:02:50;22.80;88.30
66928;DHT22;59882;45.624;11.698;2023-07-13T07:05:16;22.80;87.50
66928;DHT22;59882;45.624;11.698;2023-07-13T07:07:42;22.90;88.30
66928;DHT22;59882;45.624;11.698;2023-07-13T07:10:08;22.90;88.60
66928;DHT22;59882;45.624;11.698;2023-07-13T07:12:34;22.90;88.90
66928;DHT22;59882;45.624;11.698;2023-07-13T07:14:59;23.00;87.40
66928;DHT22;59882;45.624;11.698;2023-07-13T07:17:25;23.00;87.90
66928;DHT22;59882;45.624;11.698;2023-07-13T07:19:52;23.00;87.70
66928;DHT22;59882;45.624;11.698;2023-07-13T07:22:20;23.00;88.00
66928;DHT22;59882;45.624;11.698;2023-07-13T07:24:45;23.10;87.70
66928;DHT22;59882;45.624;11.698;2023-07-13T07:27:11;23.20;87.30
66928;DHT22;59882;45.624;11.698;2023-07-13T07:29:37;23.20;87.30
66928;DHT22;59882;45.624;11.698;2023-07-13T07:32:03;23.30;86.10
66928;DHT22;59882;45.624;11.698;2023-07-13T07:34:29;23.30;87.30
66928;DHT22;59882;45.624;11.698;2023-07-13T07:37:00;23.20;85.90
66928;DHT22;59882;45.624;11.698;2023-07-13T07:39:29;23.20;86.90
66928;DHT22;59882;45.624;11.698;2023-07-13T07:41:55;23.20;86.70
66928;DHT22;59882;45.624;11.698;2023-07-13T07:44:21;23.30;86.50
66928;DHT22;59882;45.624;11.698;2023-07-13T07:46:46;23.30;83.40
66928;DHT22;59882;45.624;11.698;2023-07-13T07:49:12;23.30;82.70
66928;DHT22;59882;45.624;11.698;2023-07-13T07:51:38;23.30;83.00
66928;DHT22;59882;45.624;11.698;2023-07-13T07:54:05;23.20;84.00
66928;DHT22;59882;45.624;11.698;2023-07-13T07:56:31;23.30;84.50
66928;DHT22;59882;45.624;11.698;2023-07-13T07:58:56;23.20;82.30
66928;DHT22;59882;45.624;11.698;2023-07-13T08:01:22;23.30;84.50
66928;DHT22;59882;45.624;11.698;2023-07-13T08:03:48;23.30;82.60
66928;DHT22;59882;45.624;11.698;2023-07-13T08:06:14;23.40;83.10
66928;DHT22;59882;45.624;11.698;2023-07-13T08:08:40;23.30;81.80
66928;DHT22;59882;45.624;11.698;2023-07-13T08:11:07;23.30;82.80
66928;DHT22;59882;45.624;11.698;2023-07-13T08:13:34;23.30;83.30
66928;DHT22;59882;45.624;11.698;2023-07-13T08:15:59;23.40;81.80
66928;DHT22;59882;45.624;11.698;2023-07-13T08:18:25;23.40;82.30
66928;DHT22;59882;45.624;11.698;2023-07-13T08:20:51;23.30;82.40
66928;DHT22;59882;45.624;11.698;2023-07-13T08:23:17;23.40;83.40
66928;DHT22;59882;45.624;11.698;2023-07-13T08:25:51;23.30;81.10
66928;DHT22;59882;45.624;11.698;2023-07-13T08:28:17;23.30;82.00
66928;DHT22;59882;45.624;11.698;2023-07-13T08:30:42;23.30;81.50
66928;DHT22;59882;45.624;11.698;2023-07-13T08:33:08;23.30;81.30
66928;DHT22;59882;45.624;11.698;2023-07-13T08:35:33;23.30;82.10
66928;DHT22;59882;45.624;11.698;2023-07-13T08:37:59;23.30;81.80
66928;DHT22;59882;45.624;11.698;2023-07-13T08:40:27;23.40;83.30
66928;DHT22;59882;45.624;11.698;2023-07-13T08:43:01;23.40;83.70
66928;DHT22;59882;45.624;11.698;2023-07-13T08:48:26;23.40;83.50
66928;DHT22;59882;45.624;11.698;2023-07-13T08:53:47;23.40;83.00
66928;DHT22;59882;45.624;11.698;2023-07-13T08:56:19;23.40;81.60
66928;DHT22;59882;45.624;11.698;2023-07-13T08:58:49;23.40;82.60
66928;DHT22;59882;45.624;11.698;2023-07-13T09:04:27;23.50;83.70
66928;DHT22;59882;45.624;11.698;2023-07-13T09:07:07;23.50;84.00
66928;DHT22;59882;45.624;11.698;2023-07-13T09:15:04;23.60;84.50
66928;DHT22;59882;45.624;11.698;2023-07-13T09:17:41;23.70;84.10
66928;DHT22;59882;45.624;11.698;2023-07-13T09:20:23;23.70;84.40
66928;DHT22;59882;45.624;11.698;2023-07-13T09:22:51;23.70;83.80
66928;DHT22;59882;45.624;11.698;2023-07-13T09:25:34;23.60;83.80
66928;DHT22;59882;45.624;11.698;2023-07-13T09:28:27;23.70;83.80
66928;DHT22;59882;45.624;11.698;2023-07-13T09:31:03;23.60;83.50
66928;DHT22;59882;45.624;11.698;2023-07-13T09:33:30;23.60;82.60
66928;DHT22;59882;45.624;11.698;2023-07-13T09:35:57;23.70;83.60
66928;DHT22;59882;45.624;11.698;2023-07-13T09:38:27;23.70;84.10
66928;DHT22;59882;45.624;11.698;2023-07-13T09:41:19;23.70;84.20
66928;DHT22;59882;45.624;11.698;2023-07-13T09:44:11;23.70;84.40
66928;DHT22;59882;45.624;11.698;2023-07-13T09:46:38;23.70;84.60
66928;DHT22;59882;45.624;11.698;2023-07-13T09:49:04;23.70;84.30
66928;DHT22;59882;45.624;11.698;2023-07-13T09:51:30;23.70;83.60
66928;DHT22;59882;45.624;11.698;2023-07-13T09:53:56;23.70;84.20
66928;DHT22;59882;45.624;11.698;2023-07-13T09:56:27;23.70;83.70
66928;DHT22;59882;45.624;11.698;2023-07-13T09:58:53;23.60;83.50
66928;DHT22;59882;45.624;11.698;2023-07-13T10:01:36;23.70;82.70
66928;DHT22;59882;45.624;11.698;2023-07-13T10:04:11;23.70;83.60
66928;DHT22;59882;45.624;11.698;2023-07-13T10:06:39;23.70;83.70
66928;DHT22;59882;45.624;11.698;2023-07-13T10:09:08;23.70;84.10
66928;DHT22;59882;45.624;11.698;2023-07-13T10:11:35;23.80;83.50
66928;DHT22;59882;45.624;11.698;2023-07-13T10:14:22;23.80;83.30
66928;DHT22;59882;45.624;11.698;2023-07-13T10:16:59;23.90;83.50
66928;DHT22;59882;45.624;11.698;2023-07-13T10:19:29;23.90;82.00
66928;DHT22;59882;45.624;11.698;2023-07-13T10:22:24;24.00;82.50
66928;DHT22;59882;45.624;11.698;2023-07-13T10:24:51;24.10;81.80
66928;DHT22;59882;45.624;11.698;2023-07-13T10:27:18;24.20;82.60
66928;DHT22;59882;45.624;11.698;2023-07-13T10:32:12;24.40;81.80
66928;DHT22;59882;45.624;11.698;2023-07-13T10:34:43;24.50;82.80
66928;DHT22;59882;45.624;11.698;2023-07-13T10:37:21;24.50;82.00
66928;DHT22;59882;45.624;11.698;2023-07-13T10:39:48;24.70;82.90
66928;DHT22;59882;45.624;11.698;2023-07-13T10:42:29;24.90;82.00
66928;DHT22;59882;45.624;11.698;2023-07-13T10:44:56;24.90;82.00
66928;DHT22;59882;45.624;11.698;2023-07-13T10:47:22;25.00;81.70
66928;DHT22;59882;45.624;11.698;2023-07-13T10:49:52;25.20;81.20
66928;DHT22;59882;45.624;11.698;2023-07-13T10:52:42;25.30;80.20
66928;DHT22;59882;45.624;11.698;2023-07-13T10:55:38;25.50;78.60
66928;DHT22;59882;45.624;11.698;2023-07-13T10:58:29;25.60;78.70
66928;DHT22;59882;45.624;11.698;2023-07-13T11:03:45;25.70;78.10
66928;DHT22;59882;45.624;11.698;2023-07-13T11:06:28;25.90;76.10
66928;DHT22;59882;45.624;11.698;2023-07-13T11:09:00;26.00;76.80
66928;DHT22;59882;45.624;11.698;2023-07-13T11:11:36;26.20;77.10
66928;DHT22;59882;45.624;11.698;2023-07-13T11:14:03;26.30;77.70
66928;DHT22;59882;45.624;11.698;2023-07-13T11:16:46;26.40;76.00
66928;DHT22;59882;45.624;11.698;2023-07-13T11:24:56;26.80;74.50
66928;DHT22;59882;45.624;11.698;2023-07-13T11:27:38;26.90;75.10
66928;DHT22;59882;45.624;11.698;2023-07-13T11:38:35;27.40;71.60
66928;DHT22;59882;45.624;11.698;2023-07-13T11:41:13;27.50;70.20
66928;DHT22;59882;45.624;11.698;2023-07-13T11:43:40;27.80;69.40
66928;DHT22;59882;45.624;11.698;2023-07-13T11:46:13;27.90;66.70
66928;DHT22;59882;45.624;11.698;2023-07-13T11:48:39;28.20;65.70
66928;DHT22;59882;45.624;11.698;2023-07-13T11:51:06;28.50;67.30
66928;DHT22;59882;45.624;11.698;2023-07-13T11:53:40;28.70;66.40
66928;DHT22;59882;45.624;11.698;2023-07-13T11:56:06;28.90;66.10
66928;DHT22;59882;45.624;11.698;2023-07-13T11:58:32;28.90;63.60
66928;DHT22;59882;45.624;11.698;2023-07-13T12:01:01;28.90;62.70
66928;DHT22;59882;45.624;11.698;2023-07-13T12:03:30;28.90;61.90
66928;DHT22;59882;45.624;11.698;2023-07-13T12:06:05;28.90;62.50
66928;DHT22;59882;45.624;11.698;2023-07-13T12:08:37;28.80;61.00
66928;DHT22;59882;45.624;11.698;2023-07-13T12:11:05;28.90;63.60
66928;DHT22;59882;45.624;11.698;2023-07-13T12:13:38;29.00;64.90
66928;DHT22;59882;45.624;11.698;2023-07-13T12:16:16;29.20;63.70
66928;DHT22;59882;45.624;11.698;2023-07-13T12:18:43;29.30;66.20
66928;DHT22;59882;45.624;11.698;2023-07-13T12:21:17;29.40;62.90
66928;DHT22;59882;45.624;11.698;2023-07-13T12:23:44;29.50;64.50
66928;DHT22;59882;45.624;11.698;2023-07-13T12:26:12;29.70;64.20
66928;DHT22;59882;45.624;11.698;2023-07-13T12:28:49;29.80;61.60
66928;DHT22;59882;45.624;11.698;2023-07-13T12:31:57;29.90;63.40
66928;DHT22;59882;45.624;11.698;2023-07-13T12:34:20;30.00;57.70
66928;DHT22;59882;45.624;11.698;2023-07-13T12:36:54;30.10;61.70
66928;DHT22;59882;45.624;11.698;2023-07-13T12:39:46;30.20;59.50
66928;DHT22;59882;45.624;11.698;2023-07-13T12:42:26;30.40;61.30
66928;DHT22;59882;45.624;11.698;2023-07-13T12:44:56;30.50;60.40
66928;DHT22;59882;45.624;11.698;2023-07-13T12:47:23;30.60;58.90
66928;DHT22;59882;45.624;11.698;2023-07-13T12:49:55;30.70;59.70
66928;DHT22;59882;45.624;11.698;2023-07-13T12:52:32;30.80;57.60
66928;DHT22;59882;45.624;11.698;2023-07-13T12:55:05;30.90;58.10
66928;DHT22;59882;45.624;11.698;2023-07-13T12:57:31;31.00;59.40
66928;DHT22;59882;45.624;11.698;2023-07-13T12:59:56;31.10;57.90
66928;DHT22;59882;45.624;11.698;2023-07-13T13:02:29;31.30;60.50
66928;DHT22;59882;45.624;11.698;2023-07-13T13:04:56;31.40;55.50
66928;DHT22;59882;45.624;11.698;2023-07-13T13:07:24;31.80;56.20
66928;DHT22;59882;45.624;11.698;2023-07-13T13:09:50;33.00;58.30
66928;DHT22;59882;45.624;11.698;2023-07-13T13:12:15;34.90;47.10
66928;DHT22;59882;45.624;11.698;2023-07-13T13:14:42;36.70;45.10
66928;DHT22;59882;45.624;11.698;2023-07-13T13:17:29;38.40;43.60
66928;DHT22;59882;45.624;11.698;2023-07-13T13:19:55;39.80;39.80
66928;DHT22;59882;45.624;11.698;2023-07-13T13:22:22;40.60;40.90
66928;DHT22;59882;45.624;11.698;2023-07-13T13:24:48;40.90;38.80
66928;DHT22;59882;45.624;11.698;2023-07-13T13:27:18;41.00;36.60
66928;DHT22;59882;45.624;11.698;2023-07-13T13:29:45;41.20;36.50
66928;DHT22;59882;45.624;11.698;2023-07-13T13:32:14;41.00;35.10
66928;DHT22;59882;45.624;11.698;2023-07-13T13:34:41;40.30;38.60
66928;DHT22;59882;45.624;11.698;2023-07-13T13:37:19;39.40;36.90
66928;DHT22;59882;45.624;11.698;2023-07-13T13:39:45;38.60;40.50
66928;DHT22;59882;45.624;11.698;2023-07-13T13:42:12;38.40;41.90
66928;DHT22;59882;45.624;11.698;2023-07-13T13:44:38;38.30;40.70
66928;DHT22;59882;45.624;11.698;2023-07-13T13:47:04;37.90;41.10
66928;DHT22;59882;45.624;11.698;2023-07-13T13:49:30;37.30;39.80
66928;DHT22;59882;45.624;11.698;2023-07-13T13:51:56;36.60;43.40
66928;DHT22;59882;45.624;11.698;2023-07-13T13:54:23;35.80;43.70
66928;DHT22;59882;45.624;11.698;2023-07-13T13:56:50;35.10;43.70
66928;DHT22;59882;45.624;11.698;2023-07-13T13:59:17;34.60;46.00
66928;DHT22;59882;45.624;11.698;2023-07-13T14:01:44;34.20;45.70
66928;DHT22;59882;45.624;11.698;2023-07-13T14:04:21;33.90;47.10
66928;DHT22;59882;45.624;11.698;2023-07-13T14:06:48;33.50;45.20
66928;DHT22;59882;45.624;11.698;2023-07-13T14:09:16;33.00;46.70
66928;DHT22;59882;45.624;11.698;2023-07-13T14:11:43;32.70;48.30
66928;DHT22;59882;45.624;11.698;2023-07-13T14:14:17;32.40;50.60
66928;DHT22;59882;45.624;11.698;2023-07-13T14:16:44;32.20;51.60
66928;DHT22;59882;45.624;11.698;2023-07-13T14:19:13;31.80;51.80
66928;DHT22;59882;45.624;11.698;2023-07-13T14:21:40;31.50;53.10
66928;DHT22;59882;45.624;11.698;2023-07-13T14:24:06;31.20;52.70
66928;DHT22;59882;45.624;11.698;2023-07-13T14:26:37;30.90;53.90
66928;DHT22;59882;45.624;11.698;2023-07-13T14:29:08;30.60;54.90
66928;DHT22;59882;45.624;11.698;2023-07-13T14:31:37;30.40;55.40
66928;DHT22;59882;45.624;11.698;2023-07-13T14:34:02;30.20;56.60
66928;DHT22;59882;45.624;11.698;2023-07-13T14:36:31;30.10;56.60
66928;DHT22;59882;45.624;11.698;2023-07-13T14:38:58;30.00;56.40
66928;DHT22;59882;45.624;11.698;2023-07-13T14:41:25;29.90;57.10
66928;DHT22;59882;45.624;11.698;2023-07-13T14:43:51;29.80;57.00
66928;DHT22;59882;45.624;11.698;2023-07-13T14:46:29;29.60;57.50
66928;DHT22;59882;45.624;11.698;2023-07-13T14:49:02;29.50;57.50
66928;DHT22;59882;45.624;11.698;2023-07-13T14:51:29;29.30;57.30
66928;DHT22;59882;45.624;11.698;2023-07-13T14:53:55;29.10;54.70
66928;DHT22;59882;45.624;11.698;2023-07-13T14:56:21;28.90;55.80
66928;DHT22;59882;45.624;11.698;2023-07-13T14:58:47;28.70;56.10
66928;DHT22;59882;45.624;11.698;2023-07-13T15:01:14;28.50;55.60
66928;DHT22;59882;45.624;11.698;2023-07-13T15:03:46;28.40;55.80
66928;DHT22;59882;45.624;11.698;2023-07-13T15:06:13;28.20;56.50
66928;DHT22;59882;45.624;11.698;2023-07-13T15:08:39;28.00;56.40
66928;DHT22;59882;45.624;11.698;2023-07-13T15:11:07;27.90;57.50
66928;DHT22;59882;45.624;11.698;2023-07-13T15:13:32;27.70;57.80
66928;DHT22;59882;45.624;11.698;2023-07-13T15:15:59;27.50;57.80
66928;DHT22;59882;45.624;11.698;2023-07-13T15:18:25;27.30;58.20
66928;DHT22;59882;45.624;11.698;2023-07-13T15:20:53;27.10;58.20
66928;DHT22;59882;45.624;11.698;2023-07-13T15:23:22;26.90;58.80
66928;DHT22;59882;45.624;11.698;2023-07-13T15:25:48;26.80;59.90
66928;DHT22;59882;45.624;11.698;2023-07-13T15:28:15;26.70;60.10
66928;DHT22;59882;45.624;11.698;2023-07-13T15:30:44;26.50;61.30
66928;DHT22;59882;45.624;11.698;2023-07-13T15:35:44;26.20;63.20
66928;DHT22;59882;45.624;11.698;2023-07-13T15:38:17;25.90;63.00
66928;DHT22;59882;45.624;11.698;2023-07-13T15:40:43;25.70;62.80
66928;DHT22;59882;45.624;11.698;2023-07-13T15:43:12;25.50;62.40
66928;DHT22;59882;45.624;11.698;2023-07-13T15:45:39;25.20;65.70
66928;DHT22;59882;45.624;11.698;2023-07-13T15:50:46;24.80;68.40
66928;DHT22;59882;45.624;11.698;2023-07-13T15:53:14;24.50;69.30
66928;DHT22;59882;45.624;11.698;2023-07-13T15:55:41;24.40;70.20
66928;DHT22;59882;45.624;11.698;2023-07-13T15:58:11;24.30;70.80
66928;DHT22;59882;45.624;11.698;2023-07-13T16:00:37;24.40;70.90
66928;DHT22;59882;45.624;11.698;2023-07-13T16:03:03;24.40;70.70
66928;DHT22;59882;45.624;11.698;2023-07-13T16:05:29;24.50;71.10
66928;DHT22;59882;45.624;11.698;2023-07-13T16:07:55;24.80;73.00